EPWR

Copernicus Wrocław Airport

Wrocław, Poland
METAR EPWR 192230Z 14005KT CAVOK 21/14 Q1017
Observed Flight Rules
Aug-19 @ 22:30 UTC (39 minutes ago) Visual Flight Rules
Wind Visibility Clouds
140° at 5 knots 10,000+ meters
  • Clear skies
Temperatures Readings
Current 21°C / 70°F
Dewpoint 14°C / 57°F
Humidity 64%
Altimeter 30.03" Hg
Pressure 1017 hPa
Elevation 121
METAR EPWR 192230Z 14005KT CAVOK 21/14 Q1017
Observed Flight Rules
Aug-19 @ 22:30 UTC
(39 minutes ago)
VFR
Wind Visibility
140° at 5 knots 10,000+ meters
Clouds
  • Clear skies
Temperature Dewpoint
21°C / 70°F 14°C / 57°F
Humidity Altimeter Pressure
64% 30.03" Hg 1017 hPa